Shale City, Illinois
Current Conditions -  °F | °C
As of 2:01 AM on Sunday 21 Dec 2014 (Local Time) from KMLI Reporting Station
Haze Haze  
Wind Chill: 28°   Ceiling: 3600
Heat Index: 34°   Visibility: 5mi
Dew Point: 32°   Wind: 7mph
Humidity: 92%   Direction: 170°S
Pressure: 30.17"   Gusts: NA
Location:  41.1928°N, 90.7165°W
Report Text: KMLI 210801Z 17006KT 5SM BR FEW012 OVC036 01/00 A3017 RMK AO2 T00110000
Loading
Personal Weather Stations






























Interactive Weather Map New forecast layout! Learn more

10-Day Weather Forecast

Advertisements
Track Severe Weather on mobile